Time;durP1;ratioP1;P1;durP2;ratioP2;P2;SDS_P1;SDS_P2;PMS_P1;PMS_P2;Temp;Humidity;BMP_temperature;BMP_pressure;BME280_temperature;BME280_humidity;BME280_pressure;Samples;Min_cycle;Max_cycle;Signal;HPM_P1;HPM_P2
2023/09/06 00:00:11;;;;;;;6.57;1.73;;;;;;;15.75;100.00;101795.44;1039888;28;20037;-55
2023/09/06 00:00:51;;;;;;;10.18;2.20;;;;;;;15.82;100.00;101789.97;1037303;28;20852;-55
2023/09/06 00:01:35;;;;;;;5.47;1.90;;;;;;;15.67;100.00;101796.59;1036306;28;20526;-53
2023/09/06 00:02:29;;;;;;;5.57;1.95;;;;;;;15.87;100.00;101792.78;1036938;28;20038;-53
2023/09/06 00:03:04;;;;;;;1.88;1.77;;;;;;;15.97;100.00;101787.72;1038968;28;20429;-54
2023/09/06 00:04:10;;;;;;;1.88;1.65;;;;;;;15.93;100.00;101787.34;1042559;28;20044;-53
2023/09/06 00:04:54;;;;;;;2.72;1.38;;;;;;;15.82;100.00;101789.97;1042275;28;20505;-53
2023/09/06 00:05:36;;;;;;;10.32;2.15;;;;;;;15.93;100.00;101786.53;1040531;28;20053;-55
2023/09/06 00:06:16;;;;;;;4.07;1.40;;;;;;;15.87;100.00;101787.41;1030206;28;20062;-53
2023/09/06 00:06:55;;;;;;;11.77;1.67;;;;;;;15.87;100.00;101790.09;1035854;28;20500;-52
2023/09/06 00:07:35;;;;;;;1.83;1.73;;;;;;;15.87;100.00;101795.47;1035768;28;20045;-55
2023/09/06 00:08:14;;;;;;;4.82;1.77;;;;;;;16.16;100.00;101796.50;1040084;28;20052;-55
2023/09/06 00:09:12;;;;;;;2.08;1.55;;;;;;;16.01;100.00;101789.72;1039985;28;20071;-54
2023/09/06 00:09:56;;;;;;;2.08;1.70;;;;;;;16.06;100.00;101791.69;1041075;28;20041;-53
2023/09/06 00:10:41;;;;;;;1.98;1.45;;;;;;;16.25;100.00;101787.09;1033735;28;20050;-54
2023/09/06 00:11:24;;;;;;;2.08;1.40;;;;;;;16.20;100.00;101789.66;1035735;28;20038;-55
2023/09/06 00:11:56;;;;;;;2.00;1.55;;;;;;;16.44;100.00;101798.59;1035526;28;20038;-56
2023/09/06 00:12:40;;;;;;;2.00;1.67;;;;;;;16.28;100.00;101795.50;1041099;28;20046;-54
2023/09/06 00:13:18;;;;;;;1.63;1.52;;;;;;;16.46;100.00;101796.47;1033397;28;20050;-51
2023/09/06 00:14:03;;;;;;;2.50;1.55;;;;;;;16.29;100.00;101793.63;1027457;28;20724;-53
2023/09/06 00:14:42;;;;;;;1.33;1.23;;;;;;;16.18;100.00;101784.50;1028288;28;20043;-52
2023/09/06 00:15:14;;;;;;;3.40;1.60;;;;;;;16.21;100.00;101781.34;1035712;28;20614;-54
2023/09/06 00:15:45;;;;;;;2.03;1.70;;;;;;;16.23;100.00;101790.00;1040216;28;20037;-55
2023/09/06 00:16:22;;;;;;;2.67;1.50;;;;;;;15.89;100.00;101779.97;1040472;28;20072;-56
2023/09/06 00:17:11;;;;;;;3.53;1.77;;;;;;;16.03;100.00;101786.78;1027649;28;20058;-53
2023/09/06 00:17:52;;;;;;;2.42;2.00;;;;;;;16.11;100.00;101789.13;1039507;28;20113;-55
2023/09/06 00:18:31;;;;;;;2.20;2.00;;;;;;;15.99;100.00;101786.44;1037097;28;20045;-53
2023/09/06 00:19:11;;;;;;;2.00;1.83;;;;;;;15.92;100.00;101784.91;1033171;28;20053;-56
2023/09/06 00:19:47;;;;;;;3.20;1.52;;;;;;;15.91;100.00;101783.25;1032967;28;20089;-55
2023/09/06 00:20:36;;;;;;;1.73;1.63;;;;;;;15.98;100.00;101787.47;1031656;28;20424;-56
2023/09/06 00:21:10;;;;;;;2.78;1.20;;;;;;;16.01;100.00;101772.75;1035194;28;20037;-55
2023/09/06 00:21:52;;;;;;;4.53;1.80;;;;;;;15.92;100.00;101783.03;1027412;28;20058;-53
2023/09/06 00:22:47;;;;;;;1.65;1.55;;;;;;;15.93;100.00;101786.53;1033954;28;20517;-52
2023/09/06 00:23:40;;;;;;;2.03;1.70;;;;;;;15.92;100.00;101780.34;1039056;28;20538;-53
2023/09/06 00:24:13;;;;;;;6.63;1.92;;;;;;;15.93;100.00;101775.78;1040006;28;20091;-53
2023/09/06 00:24:58;;;;;;;2.53;1.85;;;;;;;15.96;100.00;101783.38;1035461;28;20476;-55
2023/09/06 00:25:38;;;;;;;2.20;2.03;;;;;;;15.88;100.00;101770.25;1041119;28;20045;-52
2023/09/06 00:26:15;;;;;;;1.92;1.80;;;;;;;16.01;100.00;101784.34;1033083;28;20034;-54
2023/09/06 00:26:58;;;;;;;5.90;2.20;;;;;;;15.72;100.00;101779.78;1036386;28;20547;-53
2023/09/06 00:27:51;;;;;;;2.08;1.73;;;;;;;15.90;100.00;101776.25;1036143;28;20045;-55
2023/09/06 00:28:45;;;;;;;1.90;1.80;;;;;;;15.91;100.00;101781.38;1038022;28;20042;-55
2023/09/06 00:29:26;;;;;;;4.30;1.98;;;;;;;15.67;100.00;101785.84;1042115;28;20562;-53
2023/09/06 00:30:28;;;;;;;3.88;1.75;;;;;;;15.76;100.00;101779.09;1039308;28;20042;-53
2023/09/06 00:31:20;;;;;;;3.35;1.50;;;;;;;15.71;100.00;101778.97;1031636;28;20145;-53
2023/09/06 00:31:57;;;;;;;3.70;1.30;;;;;;;15.79;100.00;101777.81;1034627;28;20046;-54
2023/09/06 00:32:58;;;;;;;3.80;1.52;;;;;;;15.51;100.00;101777.53;1037365;28;21748;-53
2023/09/06 00:33:44;;;;;;;6.90;1.38;;;;;;;15.32;100.00;101774.03;1035919;28;20070;-55
2023/09/06 00:34:48;;;;;;;1.70;1.60;;;;;;;15.44;100.00;101769.59;1031756;28;20050;-54
2023/09/06 00:35:47;;;;;;;4.35;1.65;;;;;;;15.38;100.00;101779.34;1035955;28;20124;-52
2023/09/06 00:36:38;;;;;;;2.05;1.50;;;;;;;15.38;100.00;101778.53;1041359;28;20097;-55
2023/09/06 00:37:39;;;;;;;3.45;1.83;;;;;;;15.20;100.00;101770.50;1042801;28;20037;-55
2023/09/06 00:38:38;;;;;;;;;;;;;;;15.23;100.00;101775.41;1040533;28;20045;-55
2023/09/06 00:39:45;;;;;;;6.45;2.50;;;;;;;15.36;100.00;101780.63;1040901;28;19921;-54
2023/09/06 00:40:36;;;;;;;2.85;1.58;;;;;;;15.47;100.00;101779.88;1036657;28;20034;-52
2023/09/06 00:41:14;;;;;;;1.73;1.58;;;;;;;15.51;100.00;101778.38;1033522;28;20050;-52
2023/09/06 00:41:52;;;;;;;1.60;1.50;;;;;;;15.54;100.00;101782.47;1028111;28;20043;-56
2023/09/06 00:42:41;;;;;;;2.58;1.50;;;;;;;15.59;100.00;101779.94;1029995;28;20041;-55
2023/09/06 00:43:21;;;;;;;4.35;1.58;;;;;;;15.70;100.00;101780.00;1036993;28;20048;-55
2023/09/06 00:43:53;;;;;;;4.60;1.60;;;;;;;15.87;100.00;101776.66;1039837;28;20630;-53
2023/09/06 00:44:28;;;;;;;2.83;1.23;;;;;;;15.72;100.00;101788.66;1040865;28;20049;-53
2023/09/06 00:45:15;;;;;;;1.38;1.27;;;;;;;15.64;100.00;101780.94;1042200;28;20088;-55
2023/09/06 00:46:07;;;;;;;3.90;1.92;;;;;;;15.71;100.00;101778.97;1041316;28;20033;-54
2023/09/06 00:46:46;;;;;;;1.70;1.60;;;;;;;15.82;100.00;101780.03;1040924;28;20037;-53
2023/09/06 00:47:42;;;;;;;4.95;2.17;;;;;;;15.93;100.00;101773.09;1040905;28;20048;-55
2023/09/06 00:48:26;;;;;;;4.20;1.85;;;;;;;15.84;100.00;101772.56;1040959;28;20104;-55
2023/09/06 00:49:07;;;;;;;3.78;1.52;;;;;;;15.68;100.00;101770.53;1040004;28;20112;-52
2023/09/06 00:49:54;;;;;;;2.65;1.40;;;;;;;15.70;100.00;101769.28;1037068;28;20042;-55
2023/09/06 00:50:40;;;;;;;2.00;1.80;;;;;;;15.60;100.00;101773.53;1033416;28;20053;-53
2023/09/06 00:51:18;;;;;;;2.72;1.88;;;;;;;15.57;100.00;101772.09;1026573;28;20055;-55
2023/09/06 00:51:53;;;;;;;1.50;1.40;;;;;;;15.65;100.00;101777.19;1023547;28;20050;-55
2023/09/06 00:52:43;;;;;;;3.17;1.38;;;;;;;15.71;100.00;101772.78;1026293;28;20039;-52
2023/09/06 00:53:30;;;;;;;3.78;1.58;;;;;;;15.47;100.00;101771.81;1029704;28;20153;-55
2023/09/06 00:54:08;;;;;;;4.50;1.95;;;;;;;15.33;100.00;101775.69;1037453;28;20124;-53
2023/09/06 00:54:53;;;;;;;2.38;1.90;;;;;;;15.37;100.00;101776.91;1041265;28;20045;-55
2023/09/06 00:55:51;;;;;;;1.20;1.10;;;;;;;15.50;100.00;101779.41;1039987;28;20038;-55
2023/09/06 00:56:30;;;;;;;2.47;2.33;;;;;;;15.54;100.00;101772.53;1040667;28;20037;-53
2023/09/06 00:57:20;;;;;;;3.22;1.40;;;;;;;15.64;100.00;101778.25;1040573;28;20046;-55
2023/09/06 00:58:00;;;;;;;3.15;1.95;;;;;;;15.44;100.00;101777.63;1033521;28;20046;-52
2023/09/06 00:58:51;;;;;;;4.32;1.88;;;;;;;15.48;100.00;101775.31;1031477;28;20511;-55
2023/09/06 00:59:39;;;;;;;1.50;1.40;;;;;;;15.64;100.00;101778.25;1030083;28;20057;-52
2023/09/06 01:00:30;;;;;;;3.38;2.17;;;;;;;15.52;100.00;101773.81;1034698;28;20133;-54
2023/09/06 01:01:11;;;;;;;1.13;1.02;;;;;;;15.51;100.00;101777.53;1040744;28;20048;-55
2023/09/06 01:01:47;;;;;;;2.58;1.80;;;;;;;15.45;100.00;101777.41;1036200;28;20483;-55
2023/09/06 01:02:20;;;;;;;1.60;1.50;;;;;;;15.41;100.00;101778.09;1035979;28;20488;-55
2023/09/06 01:03:05;;;;;;;1.48;1.38;;;;;;;15.54;100.00;101767.16;1031184;28;20043;-55
2023/09/06 01:03:50;;;;;;;1.70;1.60;;;;;;;15.51;100.00;101778.38;1032950;28;20042;-52
2023/09/06 01:04:30;;;;;;;1.08;1.00;;;;;;;15.49;100.00;101779.63;1037314;28;20066;-53
2023/09/06 01:05:13;;;;;;;3.95;1.20;;;;;;;15.68;100.00;101774.06;1038104;28;20093;-55
2023/09/06 01:06:06;;;;;;;2.08;1.35;;;;;;;15.65;100.00;101777.19;1036125;28;20050;-55
2023/09/06 01:07:03;;;;;;;1.40;1.30;;;;;;;15.77;100.00;101772.69;1039725;28;20537;-53
2023/09/06 01:07:35;;;;;;;1.88;1.40;;;;;;;15.81;100.00;101775.72;1034073;28;20408;-53
2023/09/06 01:08:27;;;;;;;3.83;1.77;;;;;;;15.62;100.00;101774.97;1029048;28;20043;-55
2023/09/06 01:09:08;;;;;;;1.20;1.10;;;;;;;15.81;100.00;101774.91;1029188;28;20123;-54
2023/09/06 01:09:48;;;;;;;2.33;1.73;;;;;;;15.52;100.00;101769.25;1029012;28;20049;-55
2023/09/06 01:10:32;;;;;;;1.63;1.52;;;;;;;15.64;100.00;101775.56;1030005;28;20509;-55
2023/09/06 01:11:25;;;;;;;3.17;2.00;;;;;;;15.58;100.00;101773.75;1030264;28;20088;-57
2023/09/06 01:12:04;;;;;;;2.83;1.77;;;;;;;15.43;100.00;101774.13;1026424;28;20564;-53
2023/09/06 01:12:41;;;;;;;2.53;1.90;;;;;;;15.59;100.00;101777.25;1031846;28;20035;-51
2023/09/06 01:13:24;;;;;;;1.48;1.38;;;;;;;15.74;100.00;101775.81;1037796;28;20077;-53
2023/09/06 01:14:08;;;;;;;2.35;2.03;;;;;;;15.56;100.00;101778.50;1040619;28;20128;-55
2023/09/06 01:15:03;;;;;;;2.75;1.83;;;;;;;15.49;100.00;101776.94;1040637;28;20096;-55
2023/09/06 01:15:44;;;;;;;2.53;1.83;;;;;;;15.65;100.00;101779.88;1041617;28;20049;-54
2023/09/06 01:16:33;;;;;;;2.45;1.88;;;;;;;15.70;100.00;101782.69;1042069;28;20048;-55
2023/09/06 01:17:28;;;;;;;3.40;1.27;;;;;;;15.64;100.00;101778.25;1037072;28;20053;-55
2023/09/06 01:18:26;;;;;;;6.18;2.00;;;;;;;15.61;100.00;101781.38;1036348;28;20045;-55
2023/09/06 01:19:21;;;;;;;2.38;2.17;;;;;;;15.41;100.00;101772.72;1037710;28;20038;-53
2023/09/06 01:20:32;;;;;;;4.28;2.30;;;;;;;15.53;100.00;101781.66;1036920;28;20045;-55
2023/09/06 01:21:12;;;;;;;2.13;1.92;;;;;;;15.65;100.00;101779.06;1039458;28;20064;-55
2023/09/06 01:22:03;;;;;;;2.05;1.85;;;;;;;15.81;100.00;101778.41;1032330;28;20130;-53
2023/09/06 01:23:33;;;;;;;2.20;1.50;;;;;;;15.75;100.00;101774.78;1031517;28;20583;-54
2023/09/06 01:24:06;;;;;;;2.88;1.30;;;;;;;15.65;100.00;101777.19;1039568;28;20430;-53
2023/09/06 01:24:47;;;;;;;1.88;1.70;;;;;;;15.94;100.00;101772.88;1037740;28;20575;-55
2023/09/06 01:25:23;;;;;;;2.58;1.67;;;;;;;15.89;100.00;101778.13;1037551;28;20045;-56
2023/09/06 01:26:14;;;;;;;1.55;1.45;;;;;;;15.91;100.00;101773.31;1032555;28;20054;-53
2023/09/06 01:26:59;;;;;;;2.20;2.00;;;;;;;15.92;100.00;101780.34;1033701;28;20639;-54
2023/09/06 01:27:41;;;;;;;6.43;2.00;;;;;;;15.84;100.00;101769.06;1034944;28;20077;-53
2023/09/06 01:28:20;;;;;;;2.22;2.05;;;;;;;15.62;100.00;101774.16;1037002;28;20101;-54
2023/09/06 01:29:08;;;;;;;3.55;1.80;;;;;;;15.59;100.00;101775.38;1026254;28;20169;-55
2023/09/06 01:30:21;;;;;;;3.10;1.88;;;;;;;15.41;100.00;101781.59;1032969;28;20045;-55
2023/09/06 01:31:10;;;;;;;4.78;1.70;;;;;;;15.38;100.00;101775.84;1036831;28;20061;-55
2023/09/06 01:31:51;;;;;;;2.38;2.05;;;;;;;15.34;100.00;101782.69;1038145;28;20030;-55
2023/09/06 01:32:40;;;;;;;1.55;1.45;;;;;;;15.51;100.00;101778.38;1037775;28;20076;-53
2023/09/06 01:33:24;;;;;;;1.48;1.38;;;;;;;15.40;100.00;101776.44;1041042;28;20107;-54
2023/09/06 01:34:45;;;;;;;4.57;1.67;;;;;;;15.18;100.00;101786.81;1040060;28;20474;-55
2023/09/06 01:35:24;;;;;;;8.30;1.83;;;;;;;15.36;100.00;101780.63;1033082;28;20550;-55
2023/09/06 01:35:56;;;;;;;2.45;2.25;;;;;;;15.28;100.00;101786.28;1031351;28;20100;-55
2023/09/06 01:36:32;;;;;;;3.25;2.08;;;;;;;15.31;100.00;101783.16;1033581;28;20042;-53
2023/09/06 01:37:21;;;;;;;7.22;1.77;;;;;;;15.18;100.00;101786.81;1035167;28;20045;-55
2023/09/06 01:38:03;;;;;;;2.10;1.67;;;;;;;15.28;100.00;101778.22;1032193;28;20045;-53
2023/09/06 01:38:57;;;;;;;8.80;2.05;;;;;;;15.18;100.00;101780.63;1026675;28;20142;-54
2023/09/06 01:39:42;;;;;;;5.20;1.92;;;;;;;15.17;100.00;101784.34;1034487;28;20057;-55
2023/09/06 01:40:26;;;;;;;;;;;;;;;15.26;100.00;101791.06;1037066;28;20046;-54
2023/09/06 01:41:03;;;;;;;1.98;1.77;;;;;;;15.31;100.00;101777.78;1041491;28;19928;-55
2023/09/06 01:41:35;;;;;;;2.10;1.90;;;;;;;15.35;100.00;101789.72;1039459;28;20049;-55
2023/09/06 01:42:07;;;;;;;1.83;1.35;;;;;;;15.46;100.00;101786.28;1040625;28;20051;-52
2023/09/06 01:42:58;;;;;;;2.60;2.15;;;;;;;15.34;100.00;101782.69;1041324;28;20538;-55
2023/09/06 01:43:54;;;;;;;2.22;2.03;;;;;;;15.14;100.00;101783.75;1033124;28;20067;-55
2023/09/06 01:44:34;;;;;;;2.33;2.13;;;;;;;15.34;100.00;101782.69;1029770;28;20046;-55
2023/09/06 01:45:06;;;;;;;4.60;2.05;;;;;;;15.17;100.00;101782.50;1031909;28;20450;-54
2023/09/06 01:45:43;;;;;;;2.28;2.03;;;;;;;15.27;100.00;101776.59;1035531;28;20169;-55
2023/09/06 01:46:15;;;;;;;2.08;1.80;;;;;;;15.39;100.00;101781.00;1032640;28;20562;-55
2023/09/06 01:47:06;;;;;;;3.95;2.70;;;;;;;15.45;100.00;101779.28;1032649;28;20093;-52
2023/09/06 01:47:50;;;;;;;2.25;2.05;;;;;;;15.55;100.00;101774.19;1031769;28;20049;-55
2023/09/06 01:48:46;;;;;;;2.17;1.80;;;;;;;15.42;100.00;101779.72;1027014;28;20054;-56
2023/09/06 01:49:38;;;;;;;2.25;1.85;;;;;;;15.64;100.00;101782.78;1028556;28;20066;-53
2023/09/06 01:50:24;;;;;;;2.33;2.10;;;;;;;15.77;100.00;101783.41;1026757;28;20054;-54
2023/09/06 01:50:59;;;;;;;3.00;1.90;;;;;;;15.76;100.00;101771.03;1027047;28;20074;-55
2023/09/06 01:51:31;;;;;;;3.75;2.17;;;;;;;15.73;100.00;101781.44;1028962;28;20039;-53
2023/09/06 01:52:05;;;;;;;2.60;2.20;;;;;;;15.67;100.00;101776.97;1037074;28;20046;-55
2023/09/06 01:52:48;;;;;;;4.40;2.17;;;;;;;15.74;100.00;101772.31;1041142;28;20049;-55
2023/09/06 01:53:29;;;;;;;3.75;2.63;;;;;;;15.58;100.00;101778.28;1038208;28;20034;-55
2023/09/06 01:54:10;;;;;;;2.60;2.38;;;;;;;15.64;100.00;101772.06;1040631;28;20050;-51
2023/09/06 01:55:09;;;;;;;3.90;2.63;;;;;;;15.52;100.00;101773.81;1041576;28;20068;-53
2023/09/06 01:56:01;;;;;;;2.83;2.20;;;;;;;15.46;100.00;101775.53;1040565;28;20555;-54
2023/09/06 01:56:47;;;;;;;2.50;2.30;;;;;;;15.41;100.00;101783.47;1041660;28;20041;-50
2023/09/06 01:57:34;;;;;;;2.75;2.17;;;;;;;15.59;100.00;101780.75;1041274;28;20551;-55
2023/09/06 01:58:15;;;;;;;4.47;2.30;;;;;;;15.82;100.00;101781.91;1040148;28;20048;-53
2023/09/06 01:58:54;;;;;;;3.00;2.63;;;;;;;15.82;100.00;101781.91;1036077;28;20436;-55
2023/09/06 01:59:40;;;;;;;5.00;2.65;;;;;;;15.74;100.00;101780.38;1029507;28;20493;-55
2023/09/06 02:00:47;;;;;;;1.75;1.65;;;;;;;15.71;100.00;101778.16;1026359;28;20251;-52
2023/09/06 02:01:36;;;;;;;3.08;2.33;;;;;;;15.51;100.00;101778.38;1039059;28;21002;-55
2023/09/06 02:02:23;;;;;;;6.05;2.90;;;;;;;15.52;100.00;101773.81;1034224;28;20473;-55
2023/09/06 02:03:00;;;;;;;2.88;2.58;;;;;;;15.65;100.00;101782.56;1034190;28;20045;-56
2023/09/06 02:03:33;;;;;;;2.47;2.03;;;;;;;15.42;100.00;101771.66;1037272;28;20069;-54
2023/09/06 02:04:17;;;;;;;3.30;3.00;;;;;;;15.52;100.00;101774.63;1040540;28;20049;-55
2023/09/06 02:04:59;;;;;;;4.00;2.47;;;;;;;15.64;100.00;101777.41;1038924;28;20072;-53
2023/09/06 02:05:39;;;;;;;3.33;2.70;;;;;;;15.80;100.00;101781.31;1036014;28;20593;-55
2023/09/06 02:07:28;;;;;;;4.30;2.78;;;;;;;15.52;100.00;101780.00;1028720;28;20047;-55
2023/09/06 02:08:08;;;;;;;;;;;;;;;15.49;100.00;101777.78;1036545;28;20037;-53
2023/09/06 02:08:42;;;;;;;3.75;2.92;;;;;;;15.58;100.00;101781.81;1037518;28;19929;-54
2023/09/06 02:09:14;;;;;;;3.75;2.60;;;;;;;15.29;100.00;101779.88;1039834;28;20045;-52
2023/09/06 02:09:46;;;;;;;4.20;2.67;;;;;;;15.41;100.00;101783.47;1039523;28;20037;-52
2023/09/06 02:10:18;;;;;;;3.60;2.67;;;;;;;15.57;100.00;101787.38;1039415;28;20146;-54
2023/09/06 02:10:50;;;;;;;5.32;2.20;;;;;;;15.59;100.00;101779.94;1039497;28;20052;-52
2023/09/06 02:11:22;;;;;;;3.97;2.90;;;;;;;15.49;100.00;101777.78;1038909;28;20049;-53
2023/09/06 02:11:55;;;;;;;5.75;2.83;;;;;;;15.42;100.00;101780.53;1039320;28;20248;-54
2023/09/06 02:12:27;;;;;;;3.38;2.50;;;;;;;15.40;100.00;101784.50;1035626;28;20305;-52
2023/09/06 02:12:58;;;;;;;4.50;3.10;;;;;;;15.46;100.00;101781.72;1036944;28;20385;-53
2023/09/06 02:13:30;;;;;;;3.58;3.03;;;;;;;15.61;100.00;101789.44;1039182;28;20060;-51
2023/09/06 02:14:04;;;;;;;3.58;3.10;;;;;;;15.80;100.00;101787.50;1037870;28;20892;-55
2023/09/06 02:14:36;;;;;;;3.38;2.95;;;;;;;15.74;100.00;101778.50;1039450;28;20068;-53
2023/09/06 02:15:08;;;;;;;4.20;3.33;;;;;;;15.77;100.00;101788.78;1039234;28;20048;-53
2023/09/06 02:15:41;;;;;;;3.25;3.05;;;;;;;15.90;100.00;101789.69;1039323;28;20043;-53
2023/09/06 02:16:12;;;;;;;5.40;3.22;;;;;;;15.97;100.00;101788.53;1035231;28;20136;-52
2023/09/06 02:16:45;;;;;;;4.00;3.33;;;;;;;15.81;100.00;101791.03;1031188;28;20046;-52
2023/09/06 02:17:18;;;;;;;5.18;3.10;;;;;;;15.75;100.00;101790.88;1031796;28;20046;-55
2023/09/06 02:17:50;;;;;;;4.88;3.60;;;;;;;15.69;100.00;101789.13;1035732;28;20037;-55
2023/09/06 02:18:24;;;;;;;5.72;3.00;;;;;;;15.79;100.00;101793.13;1035463;28;20137;-55
2023/09/06 02:18:55;;;;;;;4.20;3.13;;;;;;;15.86;100.00;101788.47;1036348;28;20531;-55
2023/09/06 02:19:27;;;;;;;3.75;3.05;;;;;;;15.93;100.00;101794.59;1039154;28;20041;-55
2023/09/06 02:20:12;;;;;;;3.38;3.03;;;;;;;15.85;100.00;101792.22;1039315;28;20404;-55
2023/09/06 02:20:45;;;;;;;4.72;3.47;;;;;;;15.89;100.00;101796.09;1039516;28;20049;-55
2023/09/06 02:21:16;;;;;;;3.85;2.92;;;;;;;15.80;100.00;101797.44;1039357;28;20102;-55
2023/09/06 02:21:48;;;;;;;4.70;2.83;;;;;;;15.76;100.00;101795.22;1039965;28;20046;-55
2023/09/06 02:22:19;;;;;;;9.70;3.15;;;;;;;15.70;100.00;101790.75;1039253;28;20049;-54
2023/09/06 02:22:56;;;;;;;4.35;3.05;;;;;;;15.64;100.00;101798.91;1039532;28;20041;-56
2023/09/06 02:23:28;;;;;;;3.33;2.85;;;;;;;15.55;100.00;101798.34;1035296;28;20049;-55
2023/09/06 02:23:59;;;;;;;6.60;2.60;;;;;;;15.49;100.00;101801.94;1034923;28;20038;-55
2023/09/06 02:24:31;;;;;;;3.72;2.95;;;;;;;15.43;100.00;101802.84;1035045;28;20531;-55
2023/09/06 02:25:03;;;;;;;5.53;2.88;;;;;;;15.44;100.00;101799.13;1036050;28;20045;-55
2023/09/06 02:25:35;;;;;;;2.50;2.25;;;;;;;15.42;100.00;101795.84;1040664;28;20124;-55
2023/09/06 02:26:06;;;;;;;2.47;2.17;;;;;;;15.40;100.00;101806.81;1039735;28;20376;-55
2023/09/06 02:26:38;;;;;;;2.83;2.47;;;;;;;15.37;100.00;101811.81;1039578;28;20057;-55
2023/09/06 02:27:12;;;;;;;3.80;2.55;;;;;;;15.36;100.00;101802.09;1039536;28;20033;-55
2023/09/06 02:27:44;;;;;;;2.78;2.30;;;;;;;15.31;100.00;101805.44;1039715;28;20045;-54
2023/09/06 02:28:17;;;;;;;2.80;2.33;;;;;;;15.36;100.00;101796.75;1039709;28;20041;-56
2023/09/06 02:28:50;;;;;;;3.35;3.05;;;;;;;15.26;100.00;101802.63;1039031;28;20076;-55
2023/09/06 02:29:22;;;;;;;3.55;2.40;;;;;;;15.22;100.00;101808.66;1039353;28;20132;-55
2023/09/06 02:29:53;;;;;;;6.82;3.17;;;;;;;15.36;100.00;101802.09;1039115;28;20048;-55
2023/09/06 02:30:25;;;;;;;2.42;2.22;;;;;;;15.34;100.00;101805.03;1039091;28;20050;-55
2023/09/06 02:30:57;;;;;;;4.53;2.03;;;;;;;15.34;100.00;101804.16;1039872;28;20517;-56
2023/09/06 02:31:28;;;;;;;5.53;2.40;;;;;;;15.34;100.00;101804.16;1039727;28;20052;-55
2023/09/06 02:32:00;;;;;;;3.42;2.13;;;;;;;15.35;100.00;101806.66;1039282;28;20041;-56
2023/09/06 02:32:34;;;;;;;2.55;2.35;;;;;;;15.29;100.00;101812.09;1039412;28;20515;-53
2023/09/06 02:33:13;;;;;;;3.00;2.30;;;;;;;15.31;100.00;101815.34;1039494;28;20033;-53
2023/09/06 02:33:48;;;;;;;2.65;1.83;;;;;;;15.42;100.00;101803.88;1039654;28;20060;-53
2023/09/06 02:34:20;;;;;;;3.33;2.08;;;;;;;15.47;100.00;101809.41;1037647;28;20045;-52
2023/09/06 02:34:51;;;;;;;2.85;2.50;;;;;;;15.39;100.00;101807.03;1036637;28;20515;-52
2023/09/06 02:35:24;;;;;;;2.22;2.03;;;;;;;15.06;100.00;101807.38;1039180;28;20145;-52
2023/09/06 02:35:56;;;;;;;3.35;1.95;;;;;;;15.20;100.00;101808.06;1032851;28;20046;-52
2023/09/06 02:36:27;;;;;;;2.88;2.53;;;;;;;15.15;100.00;101812.25;1035476;28;20539;-52
2023/09/06 02:36:59;;;;;;;3.63;3.30;;;;;;;15.11;100.00;101805.69;1039114;28;20086;-52
2023/09/06 02:37:34;;;;;;;3.92;2.53;;;;;;;14.92;100.00;101812.06;1039980;28;20038;-54
2023/09/06 02:38:10;;;;;;;2.90;2.22;;;;;;;14.78;100.00;101815.88;1040318;28;20040;-54
2023/09/06 02:38:42;;;;;;;2.83;2.50;;;;;;;14.87;100.00;101811.91;1039003;28;20506;-55
2023/09/06 02:39:16;;;;;;;5.38;2.88;;;;;;;14.80;100.00;101813.84;1039270;28;20056;-55
2023/09/06 02:39:48;;;;;;;4.85;2.67;;;;;;;14.51;100.00;101809.94;1039357;28;20480;-55
2023/09/06 02:40:20;;;;;;;3.22;2.15;;;;;;;14.38;100.00;101816.19;1035949;28;20048;-53
2023/09/06 02:40:53;;;;;;;5.85;2.40;;;;;;;14.26;100.00;101809.91;1038970;28;20054;-53
2023/09/06 02:41:24;;;;;;;7.10;2.17;;;;;;;14.48;100.00;101810.38;1039036;28;20058;-52
2023/09/06 02:41:56;;;;;;;5.10;2.75;;;;;;;14.59;100.00;101808.84;1035730;28;20068;-51
2023/09/06 02:42:27;;;;;;;4.60;2.63;;;;;;;14.57;100.00;101808.25;1039394;28;20136;-52
2023/09/06 02:42:59;;;;;;;6.43;2.72;;;;;;;14.67;100.00;101805.88;1038842;28;20307;-52
2023/09/06 02:43:31;;;;;;;5.57;3.03;;;;;;;14.74;100.00;101820.06;1039768;28;20057;-55
2023/09/06 02:44:02;;;;;;;3.65;3.30;;;;;;;14.73;100.00;101813.03;1040022;28;20033;-52
2023/09/06 02:44:34;;;;;;;4.03;2.58;;;;;;;14.61;100.00;101815.63;1038795;28;20419;-52
2023/09/06 02:45:09;;;;;;;6.45;3.03;;;;;;;14.75;100.00;101819.81;1035901;28;20033;-55
2023/09/06 02:45:49;;;;;;;4.43;2.67;;;;;;;14.60;100.00;101807.81;1039597;28;20065;-55
2023/09/06 02:46:22;;;;;;;2.45;2.25;;;;;;;14.64;100.00;101817.88;1039688;28;20110;-55
2023/09/06 02:46:54;;;;;;;3.00;2.15;;;;;;;14.63;100.00;101818.09;1036656;28;20048;-55
2023/09/06 02:47:28;;;;;;;3.20;2.55;;;;;;;14.74;100.00;101814.69;1036996;28;20045;-55
2023/09/06 02:48:06;;;;;;;2.10;1.90;;;;;;;14.64;100.00;101815.19;1039104;28;20495;-55
2023/09/06 02:48:38;;;;;;;2.53;2.25;;;;;;;14.76;100.00;101812.59;1039213;28;20194;-55
2023/09/06 02:49:13;;;;;;;2.50;2.30;;;;;;;14.89;100.00;101811.69;1039530;28;20029;-54
2023/09/06 02:49:45;;;;;;;5.38;2.65;;;;;;;14.99;100.00;101812.81;1040034;28;20049;-54
2023/09/06 02:50:24;;;;;;;1.95;1.85;;;;;;;14.72;100.00;101816.78;1035215;28;20065;-54
2023/09/06 02:50:59;;;;;;;4.20;2.75;;;;;;;14.65;100.00;101816.84;1031169;28;20042;-55
2023/09/06 02:51:31;;;;;;;4.22;2.53;;;;;;;14.93;100.00;101808.34;1032928;28;20531;-55
2023/09/06 02:52:03;;;;;;;2.88;2.50;;;;;;;15.07;100.00;101815.22;1032342;28;20045;-54
2023/09/06 02:52:35;;;;;;;4.32;2.50;;;;;;;15.11;100.00;101821.78;1032024;28;20141;-55
2023/09/06 02:53:19;;;;;;;2.67;2.47;;;;;;;15.21;100.00;101815.06;1035342;28;20088;-55
2023/09/06 02:53:53;;;;;;;2.80;2.22;;;;;;;15.18;100.00;101819.03;1037448;28;20041;-55
2023/09/06 02:54:26;;;;;;;2.22;2.13;;;;;;;15.27;100.00;101814.16;1039393;28;20038;-55
2023/09/06 02:54:59;;;;;;;3.53;2.53;;;;;;;14.97;100.00;101820.25;1039215;28;20052;-53
2023/09/06 02:55:35;;;;;;;4.10;2.53;;;;;;;14.93;100.00;101811.00;1039500;28;20124;-52
2023/09/06 02:56:07;;;;;;;4.20;2.20;;;;;;;15.06;100.00;101815.41;1039644;28;20052;-52
2023/09/06 02:56:40;;;;;;;2.72;2.38;;;;;;;15.23;100.00;101812.97;1039349;28;20041;-52
2023/09/06 02:57:14;;;;;;;2.92;2.13;;;;;;;15.22;100.00;101817.53;1038981;28;20140;-52
2023/09/06 02:57:46;;;;;;;3.90;2.60;;;;;;;15.28;100.00;101805.88;1039155;28;20470;-52
2023/09/06 02:58:23;;;;;;;2.60;2.40;;;;;;;15.28;100.00;101810.44;1034938;28;20431;-55
2023/09/06 02:58:59;;;;;;;3.33;2.47;;;;;;;14.93;100.00;101807.50;1031134;28;20073;-55
2023/09/06 02:59:31;;;;;;;2.80;2.47;;;;;;;14.68;100.00;101810.22;1033194;28;20043;-55
2023/09/06 03:00:08;;;;;;;2.72;2.25;;;;;;;14.67;100.00;101813.94;1029847;28;20109;-54
2023/09/06 03:00:43;;;;;;;2.67;2.17;;;;;;;14.65;100.00;101808.78;1036727;28;20128;-52
2023/09/06 03:01:20;;;;;;;3.63;2.92;;;;;;;14.76;100.00;101810.75;1039241;28;20049;-52
2023/09/06 03:01:53;;;;;;;3.88;1.95;;;;;;;14.51;100.00;101816.09;1037080;28;20037;-52
2023/09/06 03:02:24;;;;;;;3.95;2.63;;;;;;;14.43;100.00;101816.38;1039286;28;20052;-52
2023/09/06 03:03:04;;;;;;;4.68;2.45;;;;;;;14.64;100.00;101819.75;1039279;28;20034;-53
2023/09/06 03:03:37;;;;;;;4.18;2.65;;;;;;;14.53;100.00;101816.75;1033696;28;21668;-54
2023/09/06 03:04:09;;;;;;;3.67;2.50;;;;;;;14.33;100.00;101824.06;1035285;28;20124;-54
2023/09/06 03:04:41;;;;;;;3.20;2.47;;;;;;;14.53;100.00;101814.06;1036529;28;20046;-54
2023/09/06 03:05:17;;;;;;;3.40;2.35;;;;;;;14.80;100.00;101819.19;1035094;28;20038;-54
2023/09/06 03:05:53;;;;;;;5.22;1.83;;;;;;;14.90;100.00;101816.81;1036238;28;21465;-51
2023/09/06 03:06:33;;;;;;;5.00;2.50;;;;;;;14.84;100.00;101820.41;1035268;28;20042;-53
2023/09/06 03:07:09;;;;;;;2.95;2.55;;;;;;;14.43;100.00;101824.44;1035166;28;20037;-50
2023/09/06 03:07:42;;;;;;;2.53;1.90;;;;;;;14.51;100.00;101816.09;1035154;28;20044;-52